Time;durP1;ratioP1;P1;durP2;ratioP2;P2;SDS_P1;SDS_P2;PMS_P1;PMS_P2;Temp;Humidity;BMP_temperature;BMP_pressure;BME280_temperature;BME280_humidity;BME280_pressure;Samples;Min_cycle;Max_cycle;Signal;HPM_P1;HPM_P2
2022/03/24 00:01:29;;;;;;;65.50;44.92;;;6.20;99.90;;;;;;5114807;28;20369;-61
2022/03/24 00:03:55;;;;;;;67.57;43.00;;;6.20;99.90;;;;;;5113998;28;20122;-61
2022/03/24 00:06:20;;;;;;;65.30;47.50;;;6.20;99.90;;;;;;5097952;28;20391;-61
2022/03/24 00:08:46;;;;;;;61.47;42.72;;;6.20;99.90;;;;;;5115976;28;20523;-61
2022/03/24 00:11:12;;;;;;;63.47;43.60;;;6.20;99.90;;;;;;5115022;28;20446;-61
2022/03/24 00:13:37;;;;;;;61.75;42.40;;;6.20;99.90;;;;;;5115966;28;20066;-61
2022/03/24 00:16:04;;;;;;;61.45;40.60;;;6.20;99.90;;;;;;5114819;28;20055;-61
2022/03/24 00:18:32;;;;;;;67.70;42.92;;;6.10;99.90;;;;;;5113989;28;20127;-61
2022/03/24 00:20:58;;;;;;;64.43;42.47;;;6.10;99.90;;;;;;5114370;28;20048;-61
2022/03/24 00:23:24;;;;;;;67.43;46.15;;;6.10;99.90;;;;;;5115643;28;20396;-60
2022/03/24 00:25:50;;;;;;;61.13;45.40;;;6.10;99.90;;;;;;5113638;28;20036;-60
2022/03/24 00:28:16;;;;;;;59.08;42.15;;;6.10;99.90;;;;;;5097260;28;20473;-61
2022/03/24 00:30:41;;;;;;;68.47;44.50;;;6.10;99.90;;;;;;5115572;28;20088;-60
2022/03/24 00:33:07;;;;;;;62.35;42.83;;;6.10;99.90;;;;;;5113710;28;20031;-61
2022/03/24 00:35:33;;;;;;;58.72;40.00;;;6.10;99.90;;;;;;5114434;28;20047;-61
2022/03/24 00:37:58;;;;;;;55.83;40.97;;;6.10;99.90;;;;;;5114749;28;20046;-61
2022/03/24 00:40:24;;;;;;;61.50;42.05;;;6.00;99.90;;;;;;5113211;28;20044;-61
2022/03/24 00:42:50;;;;;;;58.08;41.78;;;6.00;99.90;;;;;;5115401;28;20027;-61
2022/03/24 00:45:18;;;;;;;66.00;44.35;;;6.00;99.90;;;;;;5114049;28;20040;-60
2022/03/24 00:47:45;;;;;;;57.22;39.95;;;6.00;99.90;;;;;;5114470;28;20043;-60
2022/03/24 00:50:12;;;;;;;56.08;39.92;;;6.00;99.90;;;;;;5115065;28;20123;-61
2022/03/24 00:52:41;;;;;;;65.00;47.03;;;5.90;99.90;;;;;;5115396;28;20054;-61
2022/03/24 00:55:12;;;;;;;68.57;46.97;;;5.90;99.90;;;;;;5112680;28;20059;-61
2022/03/24 00:57:42;;;;;;;68.43;47.83;;;5.90;99.90;;;;;;5114098;28;20100;-61
2022/03/24 01:00:15;;;;;;;71.38;46.97;;;5.80;99.90;;;;;;5114225;28;20040;-61
2022/03/24 01:02:45;;;;;;;70.65;48.72;;;5.80;99.90;;;;;;5113595;28;20040;-61
2022/03/24 01:05:13;;;;;;;70.28;47.88;;;5.80;99.90;;;;;;5114354;28;20027;-61
2022/03/24 01:07:39;;;;;;;79.28;53.10;;;5.80;99.90;;;;;;5113865;28;20426;-61
2022/03/24 01:10:05;;;;;;;73.30;52.22;;;5.80;99.90;;;;;;5115077;28;20035;-61
2022/03/24 01:12:31;;;;;;;74.25;50.33;;;5.80;99.90;;;;;;5113588;28;20377;-60
2022/03/24 01:14:57;;;;;;;82.95;52.33;;;5.80;99.90;;;;;;5113819;28;20051;-61
2022/03/24 01:17:26;;;;;;;81.28;54.53;;;5.80;99.90;;;;;;5114702;27;20061;-61
2022/03/24 01:19:52;;;;;;;83.07;53.33;;;5.80;99.90;;;;;;5114318;28;20043;-61
2022/03/24 01:22:18;;;;;;;76.82;50.88;;;5.80;99.90;;;;;;5113908;28;20032;-61
2022/03/24 01:24:45;;;;;;;82.70;53.78;;;5.70;99.90;;;;;;5113135;28;20092;-61
2022/03/24 01:27:11;;;;;;;82.15;54.28;;;5.80;99.90;;;;;;5114570;28;20043;-61
2022/03/24 01:29:37;;;;;;;83.80;56.45;;;5.80;99.90;;;;;;5112575;28;20080;-61
2022/03/24 01:32:03;;;;;;;80.13;54.85;;;5.80;99.90;;;;;;5114399;28;20083;-61
2022/03/24 01:34:29;;;;;;;84.57;55.38;;;5.70;99.90;;;;;;5112944;28;20043;-61
2022/03/24 01:36:55;;;;;;;94.68;58.10;;;5.70;99.90;;;;;;5113626;28;20035;-61
2022/03/24 01:39:22;;;;;;;79.57;54.10;;;5.70;99.90;;;;;;5113032;28;20395;-61
2022/03/24 01:41:50;;;;;;;83.38;54.08;;;5.70;99.90;;;;;;5079348;28;20112;-61
2022/03/24 01:44:17;;;;;;;71.50;47.47;;;5.70;99.90;;;;;;5113241;28;20036;-61
2022/03/24 01:46:56;;;;;;;71.90;46.08;;;5.70;99.90;;;;;;5112878;28;20028;-61
2022/03/24 01:49:24;;;;;;;78.10;50.83;;;5.70;99.90;;;;;;5112199;28;20048;-61
2022/03/24 01:51:50;;;;;;;68.88;47.72;;;5.70;99.90;;;;;;5112550;28;20089;-61
2022/03/24 01:54:16;;;;;;;80.22;54.08;;;5.60;99.90;;;;;;5112479;28;20435;-61
2022/03/24 01:56:43;;;;;;;72.32;50.88;;;5.60;99.90;;;;;;5113137;28;20368;-61
2022/03/24 01:59:13;;;;;;;74.40;50.13;;;5.60;99.90;;;;;;5112418;28;20043;-61
2022/03/24 02:01:38;;;;;;;69.45;49.72;;;5.60;99.90;;;;;;5113854;28;20114;-61
2022/03/24 02:04:04;;;;;;;69.35;47.88;;;5.60;99.90;;;;;;5113072;28;20119;-61
2022/03/24 02:06:31;;;;;;;70.75;47.65;;;5.50;99.90;;;;;;5113791;27;20395;-61
2022/03/24 02:08:59;;;;;;;85.38;55.85;;;5.50;99.90;;;;;;5112127;28;20043;-61
2022/03/24 02:11:25;;;;;;;78.55;50.83;;;5.50;99.90;;;;;;5111694;28;20102;-61
2022/03/24 02:13:50;;;;;;;78.30;52.88;;;5.50;99.90;;;;;;5113490;28;20080;-61
2022/03/24 02:16:16;;;;;;;74.40;51.63;;;5.50;99.90;;;;;;5113267;28;20458;-61
2022/03/24 02:18:45;;;;;;;71.72;47.38;;;5.50;99.90;;;;;;5111334;28;20047;-61
2022/03/24 02:21:14;;;;;;;71.70;47.50;;;5.40;99.90;;;;;;5113492;27;20434;-61
2022/03/24 02:23:44;;;;;;;74.05;48.80;;;5.40;99.90;;;;;;5111855;28;20047;-61
2022/03/24 02:26:10;;;;;;;73.35;49.33;;;5.40;99.90;;;;;;5111249;28;20046;-61
2022/03/24 02:28:38;;;;;;;79.38;49.17;;;5.40;99.90;;;;;;5113414;28;20482;-61
2022/03/24 02:31:04;;;;;;;70.40;46.75;;;5.40;99.90;;;;;;5111893;28;20117;-61
2022/03/24 02:33:31;;;;;;;74.28;47.65;;;5.30;99.90;;;;;;5111347;28;20072;-61
2022/03/24 02:35:56;;;;;;;81.10;52.70;;;5.30;99.90;;;;;;5112029;28;20160;-61
2022/03/24 02:38:23;;;;;;;80.45;48.25;;;5.60;99.90;;;;;;5113028;28;20457;-61
2022/03/24 02:40:52;;;;;;;73.53;48.80;;;5.30;99.90;;;;;;5110970;28;20497;-60
2022/03/24 02:43:20;;;;;;;69.05;46.03;;;5.30;99.90;;;;;;5112854;28;20114;-61
2022/03/24 02:45:48;;;;;;;70.65;46.35;;;5.30;99.90;;;;;;5110969;28;20044;-61
2022/03/24 02:48:14;;;;;;;67.03;46.63;;;5.20;99.90;;;;;;5112939;28;20494;-61
2022/03/24 02:50:40;;;;;;;88.78;55.28;;;5.20;99.90;;;;;;5111883;28;20047;-61
2022/03/24 02:53:05;;;;;;;78.70;50.72;;;5.20;99.90;;;;;;5110932;28;20480;-61
2022/03/24 02:55:31;;;;;;;79.65;52.63;;;5.20;99.90;;;;;;5111429;28;20077;-61
2022/03/24 02:57:57;;;;;;;71.10;47.30;;;5.20;99.90;;;;;;5112641;27;20052;-60
2022/03/24 03:00:25;;;;;;;63.03;43.33;;;5.20;99.90;;;;;;5111955;28;20047;-61
2022/03/24 03:02:54;;;;;;;68.70;46.42;;;5.20;99.90;;;;;;5111942;28;20069;-61
2022/03/24 03:05:20;;;;;;;75.10;50.33;;;5.10;99.90;;;;;;5112688;28;20111;-61
2022/03/24 03:07:46;;;;;;;70.90;46.67;;;5.10;99.90;;;;;;5111859;28;20114;-61
2022/03/24 03:10:12;;;;;;;80.68;52.42;;;5.10;99.90;;;;;;5111245;28;20127;-61
2022/03/24 03:12:38;;;;;;;79.05;51.80;;;5.10;99.90;;;;;;5112794;28;20116;-61
2022/03/24 03:15:05;;;;;;;81.55;54.60;;;5.10;99.90;;;;;;5110774;28;20544;-61
2022/03/24 03:17:33;;;;;;;85.70;54.15;;;5.10;99.90;;;;;;5112563;28;20523;-61
2022/03/24 03:19:59;;;;;;;87.25;54.83;;;5.00;99.90;;;;;;5112314;28;20089;-61
2022/03/24 03:22:26;;;;;;;84.35;55.88;;;5.10;99.90;;;;;;5111571;28;20067;-61
2022/03/24 03:24:52;;;;;;;84.10;55.53;;;5.00;99.90;;;;;;5094325;28;20043;-61
2022/03/24 03:27:18;;;;;;;81.18;54.35;;;5.00;99.90;;;;;;5111153;28;20399;-61
2022/03/24 03:29:43;;;;;;;78.78;50.50;;;5.00;99.90;;;;;;5112536;28;20043;-61
2022/03/24 03:32:10;;;;;;;67.80;47.10;;;5.00;99.90;;;;;;5115514;28;20403;-61
2022/03/24 03:34:38;;;;;;;68.43;46.28;;;4.90;99.90;;;;;;5115593;28;20064;-61
2022/03/24 03:37:05;;;;;;;65.97;43.75;;;4.90;99.90;;;;;;5114616;28;20053;-61
2022/03/24 03:39:31;;;;;;;64.70;45.97;;;4.90;99.90;;;;;;5115388;28;20054;-61
2022/03/24 03:41:57;;;;;;;77.43;49.72;;;4.90;99.90;;;;;;5115878;28;20475;-61
2022/03/24 03:44:23;;;;;;;75.55;49.35;;;4.80;99.90;;;;;;5116272;28;20575;-61
2022/03/24 03:46:50;;;;;;;68.97;44.67;;;4.80;99.90;;;;;;5116551;28;20126;-61
2022/03/24 03:49:16;;;;;;;73.95;48.17;;;4.80;99.90;;;;;;5115595;28;20069;-61
2022/03/24 03:51:42;;;;;;;65.93;46.47;;;4.80;99.90;;;;;;5116036;28;20539;-61
2022/03/24 03:54:10;;;;;;;61.83;43.78;;;4.80;99.90;;;;;;5115999;28;20138;-61
2022/03/24 03:56:37;;;;;;;61.03;41.00;;;4.80;99.90;;;;;;5115867;28;20039;-61
2022/03/24 03:59:04;;;;;;;67.90;45.08;;;4.80;99.90;;;;;;5116277;28;20075;-61
2022/03/24 04:01:30;;;;;;;81.70;50.22;;;4.70;99.90;;;;;;5115014;28;20031;-61
2022/03/24 04:03:56;;;;;;;70.63;45.53;;;4.70;99.90;;;;;;5115227;27;20104;-61
2022/03/24 04:06:24;;;;;;;69.57;44.65;;;4.70;99.90;;;;;;5115829;28;20043;-61
2022/03/24 04:08:50;;;;;;;61.28;41.25;;;4.70;99.90;;;;;;5115841;28;20052;-61
2022/03/24 04:11:16;;;;;;;68.75;46.08;;;4.60;99.90;;;;;;5113951;28;20048;-61
2022/03/24 04:13:43;;;;;;;73.95;49.97;;;4.60;99.90;;;;;;5116025;28;20075;-61
2022/03/24 04:16:14;;;;;;;72.03;47.28;;;4.60;99.90;;;;;;5115736;28;20046;-61
2022/03/24 04:18:41;;;;;;;67.30;44.25;;;4.60;99.90;;;;;;5115005;27;20134;-61
2022/03/24 04:21:08;;;;;;;62.00;41.90;;;4.60;99.90;;;;;;5115396;28;20513;-61
2022/03/24 04:23:38;;;;;;;70.28;45.58;;;4.50;99.90;;;;;;5114606;28;20102;-61
2022/03/24 04:26:05;;;;;;;65.70;45.45;;;4.50;99.90;;;;;;5096680;28;20047;-61
2022/03/24 04:28:31;;;;;;;63.70;41.78;;;4.50;99.90;;;;;;5114429;28;20055;-61
2022/03/24 04:30:57;;;;;;;66.13;43.00;;;4.50;99.90;;;;;;5115569;27;20043;-61
2022/03/24 04:33:23;;;;;;;70.75;45.47;;;4.50;99.90;;;;;;5113508;28;20062;-61
2022/03/24 04:35:49;;;;;;;72.57;46.95;;;4.40;99.90;;;;;;5115168;28;20129;-61
2022/03/24 04:38:15;;;;;;;64.72;40.92;;;4.50;99.90;;;;;;5113483;28;20054;-61
2022/03/24 04:40:40;;;;;;;65.45;44.47;;;4.50;99.90;;;;;;5112596;28;20040;-61
2022/03/24 04:43:07;;;;;;;57.03;39.08;;;4.50;99.90;;;;;;5115689;28;20038;-61
2022/03/24 04:45:33;;;;;;;61.63;39.70;;;4.40;99.90;;;;;;5096658;28;20164;-61
2022/03/24 04:48:00;;;;;;;65.50;42.72;;;4.40;99.90;;;;;;5113778;28;20047;-61
2022/03/24 04:50:26;;;;;;;67.28;45.30;;;4.40;99.90;;;;;;5113875;28;20114;-61
2022/03/24 04:52:52;;;;;;;66.72;44.10;;;4.30;99.90;;;;;;5113139;28;20173;-61
2022/03/24 04:55:18;;;;;;;72.60;47.72;;;4.30;99.90;;;;;;5096733;28;20116;-60
2022/03/24 04:57:44;;;;;;;61.70;41.45;;;4.30;99.90;;;;;;5115142;28;20452;-61
2022/03/24 05:00:11;;;;;;;64.15;43.72;;;4.30;99.90;;;;;;5114268;28;20396;-61
2022/03/24 05:02:38;;;;;;;60.45;39.38;;;4.30;99.90;;;;;;5113851;28;20043;-61
2022/03/24 05:05:05;;;;;;;55.05;38.70;;;4.30;99.90;;;;;;5113537;28;20114;-61
2022/03/24 05:07:30;;;;;;;57.90;37.50;;;4.30;99.90;;;;;;5114258;28;20040;-60
2022/03/24 05:09:56;;;;;;;56.97;37.40;;;4.20;99.90;;;;;;5114746;28;20044;-60
2022/03/24 05:12:22;;;;;;;68.05;43.25;;;4.20;99.90;;;;;;5114681;28;20047;-61
2022/03/24 05:14:48;;;;;;;65.60;43.47;;;4.20;99.90;;;;;;5112806;28;20044;-61
2022/03/24 05:17:14;;;;;;;67.00;42.33;;;4.20;99.90;;;;;;5113268;28;20048;-61
2022/03/24 05:19:40;;;;;;;68.35;43.50;;;4.10;99.90;;;;;;5096260;28;20096;-61
2022/03/24 05:22:06;;;;;;;65.07;40.45;;;4.10;99.90;;;;;;5114235;28;20099;-61
2022/03/24 05:24:31;;;;;;;63.00;41.28;;;4.10;99.90;;;;;;5114816;28;20046;-61
2022/03/24 05:26:57;;;;;;;63.30;42.08;;;4.10;99.90;;;;;;5114598;28;20032;-61
2022/03/24 05:29:23;;;;;;;59.38;40.72;;;4.10;99.90;;;;;;5113661;28;20105;-60
2022/03/24 05:31:49;;;;;;;57.53;39.80;;;4.10;99.90;;;;;;5114121;28;20043;-61
2022/03/24 05:34:15;;;;;;;61.65;40.95;;;4.10;99.90;;;;;;5114176;28;20047;-61
2022/03/24 05:36:40;;;;;;;56.92;37.67;;;4.00;99.90;;;;;;5112206;28;20050;-61
2022/03/24 05:39:06;;;;;;;61.67;40.97;;;4.00;99.90;;;;;;5113140;28;20127;-61
2022/03/24 05:41:32;;;;;;;64.78;41.88;;;4.10;99.90;;;;;;5113704;28;20118;-61
2022/03/24 05:44:04;;;;;;;69.65;45.00;;;4.10;99.90;;;;;;5113120;28;20114;-60
2022/03/24 05:46:35;;;;;;;68.75;42.28;;;4.00;99.90;;;;;;5113905;28;20035;-61
2022/03/24 05:49:06;;;;;;;63.50;39.50;;;4.00;99.90;;;;;;5113181;28;20036;-61
2022/03/24 05:51:32;;;;;;;73.85;45.78;;;4.00;99.90;;;;;;5113305;28;20388;-61
2022/03/24 05:53:57;;;;;;;69.20;41.40;;;4.10;99.90;;;;;;5112371;28;20086;-61
2022/03/24 05:56:23;;;;;;;78.70;47.90;;;4.00;99.90;;;;;;5113021;28;20063;-60
2022/03/24 05:58:49;;;;;;;70.00;43.05;;;4.00;99.90;;;;;;5112516;28;20035;-60
2022/03/24 06:01:15;;;;;;;65.95;39.83;;;4.00;99.90;;;;;;5113506;28;20093;-61
2022/03/24 06:03:44;;;;;;;69.78;42.70;;;4.00;99.90;;;;;;5112842;28;20114;-61
2022/03/24 06:06:10;;;;;;;68.32;42.08;;;4.00;99.90;;;;;;5113861;28;20032;-60
2022/03/24 06:08:36;;;;;;;62.58;40.38;;;4.00;99.90;;;;;;5114107;28;20484;-61
2022/03/24 06:11:03;;;;;;;62.50;42.22;;;4.00;99.90;;;;;;5112873;28;20036;-61
2022/03/24 06:13:28;;;;;;;62.67;41.25;;;4.10;99.90;;;;;;5113650;28;20032;-61
2022/03/24 06:16:01;;;;;;;65.93;42.78;;;4.10;99.90;;;;;;5113226;28;20568;-61
2022/03/24 06:18:28;;;;;;;67.93;42.03;;;4.10;99.90;;;;;;5111559;28;20047;-61
2022/03/24 06:20:53;;;;;;;62.08;41.42;;;4.20;99.90;;;;;;5113350;28;20500;-60
2022/03/24 06:23:19;;;;;;;66.82;43.10;;;4.20;99.90;;;;;;5113345;28;20036;-61
2022/03/24 06:25:44;;;;;;;63.65;40.85;;;4.20;99.90;;;;;;5111355;28;20044;-61
2022/03/24 06:28:11;;;;;;;54.58;38.85;;;4.30;99.90;;;;;;5112011;28;20392;-61
2022/03/24 06:30:37;;;;;;;58.15;38.30;;;4.40;99.90;;;;;;5095193;28;20051;-60
2022/03/24 06:33:03;;;;;;;55.78;38.80;;;4.40;99.90;;;;;;5113251;28;20043;-61
2022/03/24 06:35:29;;;;;;;63.53;38.15;;;4.50;99.90;;;;;;5112167;28;20075;-61
2022/03/24 06:37:55;;;;;;;55.85;36.90;;;4.50;99.90;;;;;;5112559;28;20073;-61
2022/03/24 06:40:21;;;;;;;68.35;43.67;;;4.60;99.90;;;;;;5112896;28;20087;-61
2022/03/24 06:42:47;;;;;;;64.88;43.58;;;4.70;99.90;;;;;;5111762;28;20040;-61
2022/03/24 06:45:13;;;;;;;60.88;41.72;;;4.80;99.90;;;;;;5111979;28;20036;-61
2022/03/24 06:47:40;;;;;;;72.80;43.97;;;4.90;99.90;;;;;;5095046;28;20040;-61
2022/03/24 06:50:10;;;;;;;68.57;44.05;;;4.90;99.90;;;;;;5113227;28;20050;-61
2022/03/24 06:52:35;;;;;;;66.47;44.15;;;5.00;99.90;;;;;;5112400;28;20039;-61
2022/03/24 06:55:01;;;;;;;71.28;45.28;;;5.10;99.90;;;;;;5112829;28;20056;-61
2022/03/24 06:57:26;;;;;;;67.57;43.53;;;5.20;99.90;;;;;;5111451;28;20066;-61
2022/03/24 06:59:52;;;;;;;69.32;46.05;;;5.40;99.90;;;;;;5095192;28;20083;-61
2022/03/24 07:02:18;;;;;;;73.57;44.53;;;5.50;99.90;;;;;;5097776;28;20028;-61
2022/03/24 07:04:43;;;;;;;63.97;44.13;;;5.50;99.90;;;;;;5090399;28;20071;-61
2022/03/24 07:07:09;;;;;;;88.43;54.72;;;5.70;99.90;;;;;;5099614;28;20040;-61
2022/03/24 07:09:38;;;;;;;84.72;53.65;;;5.80;99.90;;;;;;5089771;28;20400;-61
2022/03/24 07:12:04;;;;;;;84.47;54.30;;;5.90;99.90;;;;;;5105052;28;20373;-61
2022/03/24 07:14:29;;;;;;;92.45;56.58;;;6.00;99.90;;;;;;5103615;28;20061;-61
2022/03/24 07:16:55;;;;;;;99.57;61.00;;;6.20;99.90;;;;;;5107046;28;20455;-61
2022/03/24 07:19:20;;;;;;;101.53;60.08;;;6.30;99.90;;;;;;5107591;28;20043;-61
2022/03/24 07:21:46;;;;;;;101.07;63.70;;;6.50;99.90;;;;;;5108900;28;20525;-61
2022/03/24 07:24:12;;;;;;;105.82;65.25;;;6.60;99.90;;;;;;5106265;28;20036;-61
2022/03/24 07:26:39;;;;;;;111.78;66.10;;;6.70;99.90;;;;;;5088517;28;20393;-61
2022/03/24 07:29:05;;;;;;;100.25;64.30;;;7.70;99.90;;;;;;5090289;28;20036;-61
2022/03/24 07:31:31;;;;;;;108.80;65.15;;;7.00;99.90;;;;;;5100906;28;20039;-61
2022/03/24 07:33:58;;;;;;;104.32;65.20;;;7.10;99.90;;;;;;5107411;28;20126;-61
2022/03/24 07:36:25;;;;;;;96.20;60.03;;;7.20;99.90;;;;;;5089250;28;20101;-61
2022/03/24 07:38:57;;;;;;;98.40;60.83;;;7.30;99.90;;;;;;5098837;28;20046;-61
2022/03/24 07:41:23;;;;;;;94.35;61.28;;;7.40;99.90;;;;;;5088968;28;20591;-61
2022/03/24 07:43:49;;;;;;;96.82;59.47;;;;;;;;;;5089509;28;20044;-61
2022/03/24 07:46:15;;;;;;;99.97;62.40;;;7.60;99.90;;;;;;5086988;28;20070;-61
2022/03/24 07:48:46;;;;;;;89.18;59.03;;;7.60;99.90;;;;;;5088444;28;20095;-61
2022/03/24 07:51:11;;;;;;;93.65;59.10;;;7.80;99.90;;;;;;5098346;28;20040;-61
2022/03/24 07:53:44;;;;;;;92.22;59.15;;;;;;;;;;5104894;28;20101;-61
2022/03/24 07:56:09;;;;;;;87.43;54.58;;;8.00;99.90;;;;;;5078591;28;20047;-61
2022/03/24 07:58:36;;;;;;;89.05;59.40;;;8.40;99.90;;;;;;5092186;28;20055;-61
2022/03/24 08:01:02;;;;;;;87.25;56.47;;;8.30;99.90;;;;;;5104785;28;20048;-61
2022/03/24 08:03:28;;;;;;;82.60;57.00;;;;;;;;;;5087558;28;20047;-61
2022/03/24 08:05:54;;;;;;;92.05;58.63;;;8.50;99.90;;;;;;5088453;28;20105;-61
2022/03/24 08:08:20;;;;;;;88.15;58.50;;;8.50;99.90;;;;;;5092462;28;20468;-61
2022/03/24 08:10:47;;;;;;;93.20;60.85;;;8.60;99.90;;;;;;5090479;28;20044;-62
2022/03/24 08:13:15;;;;;;;93.20;59.30;;;8.80;99.90;;;;;;5088937;28;20511;-62
2022/03/24 08:15:41;;;;;;;92.22;61.25;;;8.90;99.90;;;;;;5091807;28;20126;-61
2022/03/24 08:18:09;;;;;;;92.47;60.58;;;9.00;99.90;;;;;;5097435;28;20043;-62
2022/03/24 08:20:36;;;;;;;91.93;55.42;;;9.10;99.90;;;;;;5092576;28;20131;-62
2022/03/24 08:23:02;;;;;;;81.90;55.40;;;;;;;;;;5097507;28;20549;-61
2022/03/24 08:25:29;;;;;;;76.72;50.40;;;9.30;99.90;;;;;;5101096;28;20150;-61
2022/03/24 08:27:55;;;;;;;78.15;50.00;;;9.40;99.90;;;;;;5108652;28;20052;-61
2022/03/24 08:30:21;;;;;;;72.97;47.13;;;9.70;99.90;;;;;;5106927;28;20366;-61
2022/03/24 08:32:47;;;;;;;71.10;48.88;;;9.60;99.90;;;;;;5110179;28;20256;-61
2022/03/24 08:35:13;;;;;;;66.82;44.70;;;9.70;99.90;;;;;;5108732;28;20071;-61
2022/03/24 08:37:39;;;;;;;76.57;50.72;;;9.80;99.90;;;;;;5109661;28;20114;-61
2022/03/24 08:40:05;;;;;;;71.22;48.40;;;9.90;99.90;;;;;;5109432;28;20039;-61
2022/03/24 08:42:31;;;;;;;76.78;53.67;;;10.00;99.90;;;;;;5108403;28;20040;-61
2022/03/24 08:44:56;;;;;;;67.70;46.45;;;10.10;99.90;;;;;;5103254;28;20074;-61
2022/03/24 08:47:23;;;;;;;70.43;48.63;;;10.20;99.90;;;;;;5108552;28;20534;-61
2022/03/24 08:49:48;;;;;;;67.00;45.60;;;10.30;99.90;;;;;;5096839;28;20048;-61
2022/03/24 08:52:14;;;;;;;72.70;48.45;;;10.50;99.90;;;;;;5091471;28;20032;-61
2022/03/24 08:54:40;;;;;;;66.85;44.50;;;10.60;99.90;;;;;;5108789;28;20472;-61
2022/03/24 08:57:06;;;;;;;71.13;47.05;;;10.70;99.90;;;;;;5111773;28;20053;-61
2022/03/24 08:59:32;;;;;;;63.80;43.38;;;10.80;99.90;;;;;;5107597;28;20096;-61
2022/03/24 09:01:58;;;;;;;62.95;42.67;;;10.90;99.90;;;;;;5105554;28;20044;-61
2022/03/24 09:04:26;;;;;;;67.18;45.63;;;11.20;99.90;;;;;;5105327;28;20039;-61
2022/03/24 09:06:53;;;;;;;60.38;43.83;;;11.70;99.90;;;;;;5104863;28;20063;-61
2022/03/24 09:09:22;;;;;;;62.83;44.40;;;11.20;99.90;;;;;;5101349;28;20533;-61
2022/03/24 09:11:50;;;;;;;62.45;43.83;;;11.30;99.90;;;;;;5104494;28;20039;-61
2022/03/24 09:14:17;;;;;;;60.20;42.38;;;11.40;99.90;;;;;;5095882;28;20511;-61
2022/03/24 09:16:43;;;;;;;63.03;44.38;;;11.50;99.90;;;;;;5095831;28;20127;-61
2022/03/24 09:19:10;;;;;;;64.63;44.90;;;12.10;99.90;;;;;;5077826;28;20040;-61
2022/03/24 09:21:36;;;;;;;65.50;46.22;;;11.40;99.90;;;;;;5093603;28;20039;-61
2022/03/24 09:24:01;;;;;;;64.70;46.20;;;11.70;99.90;;;;;;5105850;28;20032;-61
2022/03/24 09:26:27;;;;;;;65.45;42.88;;;11.80;99.90;;;;;;5092016;28;20559;-61
2022/03/24 09:28:53;;;;;;;56.03;40.42;;;11.80;99.90;;;;;;5093443;28;20047;-62
2022/03/24 09:31:22;;;;;;;56.50;38.83;;;11.80;99.90;;;;;;5095701;28;20104;-63
2022/03/24 09:33:47;;;;;;;58.00;43.38;;;11.90;99.90;;;;;;5097450;28;20032;-62
2022/03/24 09:36:13;;;;;;;55.90;39.80;;;11.80;99.90;;;;;;5112459;28;20365;-62
2022/03/24 09:38:39;;;;;;;52.92;39.45;;;11.90;99.90;;;;;;5106839;28;20542;-62
2022/03/24 09:41:09;;;;;;;53.10;36.67;;;11.90;99.90;;;;;;5091983;28;20075;-61
2022/03/24 09:43:37;;;;;;;54.25;38.42;;;12.00;99.90;;;;;;5094818;28;20044;-62
2022/03/24 09:46:03;;;;;;;48.15;34.38;;;12.00;99.90;;;;;;5099646;28;20040;-61
2022/03/24 09:48:29;;;;;;;53.65;38.15;;;12.00;99.90;;;;;;5091672;28;20044;-61
2022/03/24 09:50:56;;;;;;;55.17;32.78;;;12.10;99.90;;;;;;5110105;28;20393;-61
2022/03/24 09:53:23;;;;;;;47.42;34.22;;;12.40;99.90;;;;;;5105010;28;20382;-62
2022/03/24 09:55:50;;;;;;;50.72;33.10;;;12.30;99.90;;;;;;5097075;28;20047;-61
2022/03/24 09:58:16;;;;;;;50.03;33.58;;;12.40;99.90;;;;;;5100058;28;20047;-62
2022/03/24 10:00:42;;;;;;;49.00;34.28;;;12.40;99.90;;;;;;5100325;28;20521;-62
2022/03/24 10:03:09;;;;;;;54.13;35.92;;;12.50;99.90;;;;;;5094917;28;20111;-61
2022/03/24 10:05:35;;;;;;;51.95;35.85;;;12.60;99.90;;;;;;5104640;28;20040;-61
2022/03/24 10:08:05;;;;;;;47.63;35.58;;;12.50;99.90;;;;;;5113230;28;20503;-61
2022/03/24 10:10:34;;;;;;;51.15;37.28;;;12.70;99.90;;;;;;5111108;28;20480;-61
2022/03/24 10:13:01;;;;;;;51.80;35.83;;;12.70;99.90;;;;;;5111848;28;20114;-61
2022/03/24 10:15:27;;;;;;;48.60;33.13;;;12.80;99.90;;;;;;5095807;28;20071;-61
2022/03/24 10:17:56;;;;;;;50.80;36.03;;;12.60;99.90;;;;;;5092587;28;20117;-62
2022/03/24 10:20:23;;;;;;;46.85;31.63;;;12.90;99.90;;;;;;5103082;28;20036;-62
2022/03/24 10:22:58;;;;;;;46.28;32.10;;;12.90;99.90;;;;;;5108160;28;20048;-61
2022/03/24 10:25:28;;;;;;;53.53;35.33;;;13.00;99.90;;;;;;5097821;28;20040;-61
2022/03/24 10:28:05;;;;;;;44.40;33.65;;;13.00;99.90;;;;;;5110960;28;20035;-61
2022/03/24 10:31:02;;;;;;;51.08;33.17;;;13.20;99.90;;;;;;5092716;28;20372;-61
2022/03/24 10:33:32;;;;;;;46.17;32.67;;;13.30;99.90;;;;;;5083471;28;20500;-61
2022/03/24 10:36:15;;;;;;;47.13;32.35;;;13.30;99.90;;;;;;5091636;28;20039;-61
2022/03/24 10:38:43;;;;;;;49.78;34.78;;;13.30;99.90;;;;;;5091927;28;20389;-61
2022/03/24 10:41:16;;;;;;;51.75;39.22;;;13.50;99.90;;;;;;5111125;28;20403;-61
2022/03/24 10:43:42;;;;;;;56.25;41.33;;;13.40;99.90;;;;;;5091728;28;20032;-61
2022/03/24 10:46:16;;;;;;;49.00;37.45;;;13.40;99.90;;;;;;5094523;28;20040;-61
2022/03/24 10:48:42;;;;;;;47.55;36.40;;;13.50;99.90;;;;;;5105937;28;20506;-61
2022/03/24 10:51:08;;;;;;;53.17;38.60;;;13.50;99.90;;;;;;5110478;28;20051;-61
2022/03/24 10:53:43;;;;;;;53.15;39.60;;;13.60;99.90;;;;;;5091114;28;20144;-61
2022/03/24 10:56:11;;;;;;;49.53;37.20;;;13.60;99.90;;;;;;5092586;28;20393;-61
2022/03/24 10:58:46;;;;;;;54.08;38.70;;;13.60;99.90;;;;;;5090762;28;20059;-61
2022/03/24 11:01:15;;;;;;;54.05;39.75;;;13.70;99.90;;;;;;5087859;28;20044;-61
2022/03/24 11:03:43;;;;;;;54.70;41.45;;;13.70;99.90;;;;;;5108697;28;20043;-61
2022/03/24 11:06:19;;;;;;;51.58;40.90;;;13.70;99.90;;;;;;5109044;28;20584;-61
2022/03/24 11:08:53;;;;;;;53.08;38.40;;;13.70;99.90;;;;;;5107467;28;20040;-61
2022/03/24 11:11:19;;;;;;;59.28;42.13;;;13.80;99.90;;;;;;5108718;28;20047;-61
2022/03/24 11:13:49;;;;;;;56.97;42.20;;;13.70;99.90;;;;;;5105966;28;20565;-61
2022/03/24 11:16:19;;;;;;;54.65;39.20;;;13.80;99.90;;;;;;5102970;28;20503;-61
2022/03/24 11:18:46;;;;;;;56.45;40.95;;;13.80;99.90;;;;;;5109619;28;20503;-61
2022/03/24 11:21:32;;;;;;;51.35;39.45;;;13.90;99.90;;;;;;5093940;28;20114;-61
2022/03/24 11:23:58;;;;;;;57.63;39.80;;;13.90;99.90;;;;;;5088641;28;20168;-61
2022/03/24 11:26:25;;;;;;;56.65;38.28;;;14.00;99.90;;;;;;5088418;28;20516;-61
2022/03/24 11:28:56;;;;;;;54.15;38.05;;;14.00;99.90;;;;;;5089389;28;20492;-61
2022/03/24 11:31:28;;;;;;;51.88;39.15;;;14.10;99.90;;;;;;5093785;28;20047;-61
2022/03/24 11:33:56;;;;;;;52.83;39.38;;;14.00;99.90;;;;;;5094225;28;20043;-62
2022/03/24 11:36:23;;;;;;;51.90;37.65;;;14.10;99.90;;;;;;5100556;28;20043;-62
2022/03/24 11:38:53;;;;;;;52.17;35.95;;;14.10;99.90;;;;;;5110610;28;20058;-62
2022/03/24 11:41:38;;;;;;;48.88;35.40;;;14.20;99.90;;;;;;5096018;28;20442;-61
2022/03/24 11:44:18;;;;;;;50.75;35.33;;;14.20;99.90;;;;;;5105226;28;20051;-62
2022/03/24 11:46:56;;;;;;;52.90;36.35;;;14.20;99.90;;;;;;5106361;28;20027;-61
2022/03/24 11:49:27;;;;;;;49.65;34.22;;;14.20;99.90;;;;;;5108936;28;20089;-61
2022/03/24 11:51:59;;;;;;;47.85;34.33;;;14.30;99.90;;;;;;5114398;28;20040;-61
2022/03/24 11:54:36;;;;;;;47.85;34.13;;;14.50;99.90;;;;;;5095218;28;20059;-61
2022/03/24 11:57:26;;;;;;;45.38;33.10;;;14.40;99.90;;;;;;5096963;28;20052;-61
2022/03/24 12:00:14;;;;;;;43.97;30.98;;;14.40;99.90;;;;;;5115084;28;20048;-61
2022/03/24 12:02:49;;;;;;;46.58;33.90;;;14.40;96.70;;;;;;5095609;28;20104;-61
2022/03/24 12:05:16;;;;;;;47.70;34.30;;;14.40;96.50;;;;;;5094344;28;20054;-61
2022/03/24 12:07:42;;;;;;;45.30;34.22;;;14.40;97.30;;;;;;5095806;28;20432;-61
2022/03/24 12:10:29;;;;;;;45.13;33.22;;;14.50;96.00;;;;;;5094661;28;20039;-61
2022/03/24 12:13:21;;;;;;;40.78;29.02;;;14.50;95.80;;;;;;5094227;28;20097;-61
2022/03/24 12:16:13;;;;;;;44.88;34.58;;;14.50;94.80;;;;;;5094578;28;20511;-61
2022/03/24 12:18:40;;;;;;;41.67;29.10;;;14.60;93.00;;;;;;5098437;28;20534;-61
2022/03/24 12:21:06;;;;;;;41.85;28.77;;;14.70;93.60;;;;;;5111146;28;20050;-61
2022/03/24 12:24:09;;;;;;;40.20;29.08;;;14.60;92.10;;;;;;5083048;28;20046;-61
2022/03/24 12:26:51;;;;;;;45.35;30.38;;;14.70;91.60;;;;;;5101484;28;20042;-61
2022/03/24 12:29:19;;;;;;;43.47;31.20;;;14.80;91.90;;;;;;5116157;27;20040;-61
2022/03/24 12:31:55;;;;;;;44.25;32.10;;;14.90;91.80;;;;;;5114325;28;20082;-61
2022/03/24 12:34:21;;;;;;;49.08;32.08;;;14.90;90.20;;;;;;5115684;27;20085;-61
2022/03/24 12:36:47;;;;;;;45.35;30.75;;;14.90;91.30;;;;;;5113822;28;20043;-61
2022/03/24 12:39:30;;;;;;;43.28;29.42;;;14.90;90.50;;;;;;5112962;28;20035;-61